createdAt,value
2019-03-22T00:00:37.000Z,1027.79
2019-03-22T00:01:17.631Z,1027.84
2019-03-22T00:01:58.194Z,1027.8
2019-03-22T00:02:38.777Z,1027.81
2019-03-22T00:03:19.336Z,1027.79
2019-03-22T00:03:59.906Z,1027.82
2019-03-22T00:04:40.463Z,1027.83
2019-03-22T00:05:21.041Z,1027.81
2019-03-22T00:06:01.682Z,1027.78
2019-03-22T00:06:42.264Z,1027.76
2019-03-22T00:07:22.838Z,1027.82
2019-03-22T00:08:03.437Z,1027.76
2019-03-22T00:08:43.961Z,1027.79
2019-03-22T00:09:24.511Z,1027.78
2019-03-22T00:10:05.086Z,1027.79
2019-03-22T00:10:45.710Z,1027.76
2019-03-22T00:11:26.331Z,1027.78
2019-03-22T00:12:07.048Z,1027.81
2019-03-22T00:12:47.564Z,1027.76
2019-03-22T00:13:28.118Z,1027.74
2019-03-22T00:14:08.675Z,1027.73
2019-03-22T00:14:49.244Z,1027.73
2019-03-22T00:15:29.940Z,1027.71
2019-03-22T00:16:10.588Z,1027.7
2019-03-22T00:16:51.197Z,1027.7
2019-03-22T00:17:31.767Z,1027.71
2019-03-22T00:18:12.332Z,1027.72
2019-03-22T00:18:52.891Z,1027.75
2019-03-22T00:19:33.468Z,1027.76
2019-03-22T00:20:14.018Z,1027.76
2019-03-22T00:20:54.589Z,1027.74
2019-03-22T00:21:35.170Z,1027.73
2019-03-22T00:22:15.732Z,1027.69
2019-03-22T00:22:56.285Z,1027.73
2019-03-22T00:23:36.841Z,1027.72
2019-03-22T00:24:17.417Z,1027.68
2019-03-22T00:24:57.989Z,1027.72
2019-03-22T00:25:38.536Z,1027.68
2019-03-22T00:26:19.119Z,1027.71
2019-03-22T00:26:59.713Z,1027.73
2019-03-22T00:27:40.307Z,1027.72
2019-03-22T00:28:20.900Z,1027.72
2019-03-22T00:29:01.529Z,1027.74
2019-03-22T00:29:42.075Z,1027.7
2019-03-22T00:30:22.626Z,1027.69
2019-03-22T00:31:03.230Z,1027.75
2019-03-22T00:31:43.775Z,1027.71
2019-03-22T00:32:24.361Z,1027.64
2019-03-22T00:33:04.918Z,1027.7
2019-03-22T00:33:45.481Z,1027.7
2019-03-22T00:34:26.037Z,1027.72
2019-03-22T00:35:06.600Z,1027.68
2019-03-22T00:35:47.172Z,1027.72
2019-03-22T00:36:27.723Z,1027.7
2019-03-22T00:37:08.281Z,1027.73
2019-03-22T00:37:48.873Z,1027.7
2019-03-22T00:38:29.467Z,1027.72
2019-03-22T00:39:10.024Z,1027.74
2019-03-22T00:39:50.589Z,1027.76
2019-03-22T00:40:31.155Z,1027.72
2019-03-22T00:41:11.772Z,1027.74
2019-03-22T00:41:52.282Z,1027.77
2019-03-22T00:42:32.936Z,1027.79
2019-03-22T00:43:13.573Z,1027.76
2019-03-22T00:43:54.132Z,1027.8
2019-03-22T00:44:34.713Z,1027.81
2019-03-22T00:45:15.279Z,1027.87
2019-03-22T00:45:55.839Z,1027.86
2019-03-22T00:46:36.385Z,1027.83
2019-03-22T00:47:16.935Z,1027.84
2019-03-22T00:47:57.500Z,1027.88
2019-03-22T00:48:38.164Z,1027.86
2019-03-22T00:49:18.648Z,1027.87
2019-03-22T00:49:59.217Z,1027.8
2019-03-22T00:50:39.786Z,1027.83
2019-03-22T00:51:20.339Z,1027.82
2019-03-22T00:52:00.907Z,1027.81
2019-03-22T00:52:41.465Z,1027.81
2019-03-22T00:53:22.021Z,1027.78
2019-03-22T00:54:02.582Z,1027.78
2019-03-22T00:54:43.148Z,1027.75
2019-03-22T00:55:23.712Z,1027.74
2019-03-22T00:56:04.277Z,1027.72
2019-03-22T00:56:44.838Z,1027.7
2019-03-22T00:57:28.583Z,1027.75
2019-03-22T00:58:06.439Z,1027.74
2019-03-22T00:58:47.009Z,1027.68
2019-03-22T00:59:27.571Z,1027.72
2019-03-22T01:00:08.134Z,1027.68
2019-03-22T01:00:48.694Z,1027.67
2019-03-22T01:01:29.263Z,1027.68
2019-03-22T01:02:09.824Z,1027.64
2019-03-22T01:02:50.389Z,1027.64
2019-03-22T01:03:30.947Z,1027.61
2019-03-22T01:04:11.521Z,1027.61
2019-03-22T01:04:52.083Z,1027.6
2019-03-22T01:05:32.646Z,1027.59
2019-03-22T01:06:13.223Z,1027.59
2019-03-22T01:06:53.784Z,1027.59
2019-03-22T01:07:34.381Z,1027.62
2019-03-22T01:08:14.958Z,1027.6
2019-03-22T01:08:55.533Z,1027.58
2019-03-22T01:09:36.104Z,1027.58
2019-03-22T01:10:16.673Z,1027.62
2019-03-22T01:10:57.223Z,1027.58
2019-03-22T01:11:37.806Z,1027.54
2019-03-22T01:12:18.370Z,1027.58
2019-03-22T01:12:58.938Z,1027.56
2019-03-22T01:13:39.505Z,1027.56
2019-03-22T01:14:20.071Z,1027.52
2019-03-22T01:15:00.622Z,1027.5
2019-03-22T01:15:41.181Z,1027.5
2019-03-22T01:16:21.741Z,1027.52
2019-03-22T01:17:02.311Z,1027.52
2019-03-22T01:17:42.887Z,1027.53
2019-03-22T01:18:23.456Z,1027.5
2019-03-22T01:19:04.017Z,1027.55
2019-03-22T01:19:44.591Z,1027.53
2019-03-22T01:20:25.148Z,1027.53
2019-03-22T01:21:05.714Z,1027.49
2019-03-22T01:21:46.286Z,1027.54
2019-03-22T01:22:26.843Z,1027.53
2019-03-22T01:23:07.405Z,1027.53
2019-03-22T01:23:47.973Z,1027.52
2019-03-22T01:24:28.537Z,1027.52
2019-03-22T01:25:09.103Z,1027.49
2019-03-22T01:25:49.660Z,1027.53
2019-03-22T01:26:30.225Z,1027.53
2019-03-22T01:27:10.789Z,1027.53
2019-03-22T01:27:51.358Z,1027.52
2019-03-22T01:28:31.929Z,1027.52
2019-03-22T01:29:12.491Z,1027.54
2019-03-22T01:29:53.060Z,1027.54
2019-03-22T01:30:33.644Z,1027.53
2019-03-22T01:31:14.201Z,1027.54
2019-03-22T01:31:54.786Z,1027.54
2019-03-22T01:32:35.344Z,1027.57
2019-03-22T01:33:15.914Z,1027.55
2019-03-22T01:33:56.530Z,1027.53
2019-03-22T01:34:37.115Z,1027.47
2019-03-22T01:35:17.678Z,1027.52
2019-03-22T01:35:58.286Z,1027.47
2019-03-22T01:36:38.853Z,1027.45
2019-03-22T01:37:19.422Z,1027.41
2019-03-22T01:37:59.982Z,1027.43
2019-03-22T01:38:40.554Z,1027.47
2019-03-22T01:39:21.116Z,1027.49
2019-03-22T01:40:01.691Z,1027.49
2019-03-22T01:40:42.263Z,1027.45
2019-03-22T01:41:22.814Z,1027.47
2019-03-22T01:42:03.382Z,1027.49
2019-03-22T01:42:43.936Z,1027.43
2019-03-22T01:43:24.488Z,1027.41
2019-03-22T01:44:05.042Z,1027.4
2019-03-22T01:44:45.601Z,1027.43
2019-03-22T01:45:26.169Z,1027.4
2019-03-22T01:46:06.746Z,1027.41
2019-03-22T01:46:47.307Z,1027.41
2019-03-22T01:47:27.892Z,1027.35
2019-03-22T01:48:08.449Z,1027.38
2019-03-22T01:48:49.005Z,1027.37
2019-03-22T01:49:29.671Z,1027.32
2019-03-22T01:50:10.178Z,1027.35
2019-03-22T01:50:50.757Z,1027.31
2019-03-22T01:51:31.326Z,1027.31
2019-03-22T01:52:11.886Z,1027.33
2019-03-22T01:52:52.440Z,1027.34
2019-03-22T01:53:32.987Z,1027.35
2019-03-22T01:54:13.535Z,1027.36
2019-03-22T01:54:54.100Z,1027.39
2019-03-22T01:55:34.661Z,1027.37
2019-03-22T01:56:15.244Z,1027.29
2019-03-22T01:56:55.802Z,1027.34
2019-03-22T01:57:36.378Z,1027.31
2019-03-22T01:58:16.924Z,1027.31
2019-03-22T01:58:57.532Z,1027.3
2019-03-22T01:59:38.090Z,1027.27
2019-03-22T02:00:18.668Z,1027.26
2019-03-22T02:00:59.231Z,1027.22
2019-03-22T02:01:39.798Z,1027.25
2019-03-22T02:02:20.348Z,1027.25
2019-03-22T02:03:00.900Z,1027.26
2019-03-22T02:03:41.460Z,1027.28
2019-03-22T02:04:22.045Z,1027.25
2019-03-22T02:05:02.602Z,1027.24
2019-03-22T02:05:43.177Z,1027.24
2019-03-22T02:06:23.769Z,1027.27
2019-03-22T02:07:04.309Z,1027.26
2019-03-22T02:07:44.875Z,1027.24
2019-03-22T02:08:25.434Z,1027.27
2019-03-22T02:09:06.002Z,1027.28
2019-03-22T02:09:46.554Z,1027.25
2019-03-22T02:10:27.105Z,1027.27
2019-03-22T02:11:07.730Z,1027.29
2019-03-22T02:11:48.296Z,1027.28
2019-03-22T02:12:28.853Z,1027.27
2019-03-22T02:13:09.412Z,1027.32
2019-03-22T02:13:49.955Z,1027.27
2019-03-22T02:14:30.564Z,1027.28
2019-03-22T02:15:11.130Z,1027.22
2019-03-22T02:15:51.704Z,1027.23
2019-03-22T02:16:32.264Z,1027.27
2019-03-22T02:17:12.834Z,1027.18
2019-03-22T02:17:53.397Z,1027.27
2019-03-22T02:18:33.985Z,1027.24
2019-03-22T02:19:14.555Z,1027.26
2019-03-22T02:19:55.116Z,1027.24
2019-03-22T02:20:35.676Z,1027.25
2019-03-22T02:21:16.225Z,1027.3
2019-03-22T02:21:56.804Z,1027.28
2019-03-22T02:22:37.363Z,1027.3
2019-03-22T02:23:17.937Z,1027.29
2019-03-22T02:23:58.502Z,1027.31
2019-03-22T02:24:39.083Z,1027.33
2019-03-22T02:25:19.626Z,1027.33
2019-03-22T02:26:00.181Z,1027.35
2019-03-22T02:26:40.781Z,1027.31
2019-03-22T02:27:21.342Z,1027.27
2019-03-22T02:28:04.257Z,1027.3
2019-03-22T02:28:42.455Z,1027.28
2019-03-22T02:29:23.024Z,1027.28
2019-03-22T02:30:03.590Z,1027.29
2019-03-22T02:30:44.161Z,1027.33
2019-03-22T02:31:24.720Z,1027.3
2019-03-22T02:32:05.329Z,1027.29
2019-03-22T02:32:45.882Z,1027.31
2019-03-22T02:33:26.435Z,1027.33
2019-03-22T02:34:07.009Z,1027.3
2019-03-22T02:34:47.635Z,1027.31
2019-03-22T02:35:29.622Z,1027.32
2019-03-22T02:36:08.755Z,1027.35
2019-03-22T02:36:49.322Z,1027.34
2019-03-22T02:37:29.878Z,1027.36
2019-03-22T02:38:10.454Z,1027.41
2019-03-22T02:38:51.020Z,1027.44
2019-03-22T02:39:31.697Z,1027.44
2019-03-22T02:40:12.146Z,1027.46
2019-03-22T02:40:52.709Z,1027.5
2019-03-22T02:41:33.258Z,1027.51
2019-03-22T02:42:13.840Z,1027.49
2019-03-22T02:42:54.391Z,1027.47
2019-03-22T02:43:34.961Z,1027.46
2019-03-22T02:44:15.540Z,1027.43
2019-03-22T02:44:56.101Z,1027.43
2019-03-22T02:45:36.693Z,1027.42
2019-03-22T02:46:17.248Z,1027.4
2019-03-22T02:46:57.848Z,1027.4
2019-03-22T02:47:38.402Z,1027.47
2019-03-22T02:48:18.987Z,1027.42
2019-03-22T02:48:59.552Z,1027.47
2019-03-22T02:49:40.112Z,1027.44
2019-03-22T02:50:20.729Z,1027.5
2019-03-22T02:51:01.224Z,1027.46
2019-03-22T02:51:41.847Z,1027.5
2019-03-22T02:52:22.423Z,1027.48
2019-03-22T02:53:02.981Z,1027.47
2019-03-22T02:53:43.540Z,1027.45
2019-03-22T02:54:24.099Z,1027.45
2019-03-22T02:55:04.679Z,1027.48
2019-03-22T02:55:45.264Z,1027.48
2019-03-22T02:56:25.791Z,1027.49
2019-03-22T02:57:06.361Z,1027.45
2019-03-22T02:57:46.897Z,1027.37
2019-03-22T02:58:27.487Z,1027.39
2019-03-22T02:59:08.033Z,1027.42
2019-03-22T02:59:48.598Z,1027.39
2019-03-22T03:00:29.176Z,1027.43
2019-03-22T03:01:09.766Z,1027.47
2019-03-22T03:01:50.334Z,1027.47
2019-03-22T03:02:30.891Z,1027.49
2019-03-22T03:03:11.444Z,1027.48
2019-03-22T03:03:52.032Z,1027.5
2019-03-22T03:04:32.621Z,1027.5
2019-03-22T03:05:13.194Z,1027.49
2019-03-22T03:05:53.746Z,1027.53
2019-03-22T03:06:34.313Z,1027.52
2019-03-22T03:07:14.866Z,1027.52
2019-03-22T03:07:55.433Z,1027.51
2019-03-22T03:08:35.992Z,1027.44
2019-03-22T03:09:16.556Z,1027.46
2019-03-22T03:09:57.124Z,1027.46
2019-03-22T03:10:37.682Z,1027.48
2019-03-22T03:11:18.267Z,1027.52
2019-03-22T03:11:58.817Z,1027.57
2019-03-22T03:12:39.374Z,1027.53
2019-03-22T03:13:19.947Z,1027.57
2019-03-22T03:14:00.507Z,1027.61
2019-03-22T03:14:41.060Z,1027.59
2019-03-22T03:15:21.620Z,1027.67
2019-03-22T03:16:02.187Z,1027.69
2019-03-22T03:16:42.734Z,1027.7
2019-03-22T03:17:23.303Z,1027.72
2019-03-22T03:18:03.874Z,1027.76
2019-03-22T03:18:44.431Z,1027.75
2019-03-22T03:19:24.991Z,1027.77
2019-03-22T03:20:05.552Z,1027.75
2019-03-22T03:20:46.109Z,1027.78
2019-03-22T03:21:26.667Z,1027.75
2019-03-22T03:22:07.228Z,1027.77
2019-03-22T03:22:47.787Z,1027.79
2019-03-22T03:23:28.327Z,1027.75
2019-03-22T03:24:08.894Z,1027.76
2019-03-22T03:24:49.452Z,1027.8
2019-03-22T03:25:30.014Z,1027.79
2019-03-22T03:26:10.580Z,1027.76
2019-03-22T03:26:51.144Z,1027.77
2019-03-22T03:27:31.688Z,1027.78
2019-03-22T03:28:12.254Z,1027.78
2019-03-22T03:28:52.829Z,1027.79
2019-03-22T03:29:33.396Z,1027.81
2019-03-22T03:30:13.963Z,1027.81
2019-03-22T03:30:54.530Z,1027.78
2019-03-22T03:31:35.116Z,1027.78
2019-03-22T03:32:15.679Z,1027.8
2019-03-22T03:32:56.228Z,1027.86
2019-03-22T03:33:36.809Z,1027.9
2019-03-22T03:34:17.441Z,1027.91
2019-03-22T03:34:57.972Z,1027.93
2019-03-22T03:35:38.533Z,1027.95
2019-03-22T03:36:19.111Z,1027.97
2019-03-22T03:36:59.667Z,1027.96
2019-03-22T03:37:40.232Z,1027.95
2019-03-22T03:38:20.788Z,1027.92
2019-03-22T03:39:01.343Z,1027.92
2019-03-22T03:39:41.911Z,1027.91
2019-03-22T03:40:22.465Z,1027.88
2019-03-22T03:41:03.036Z,1027.93
2019-03-22T03:41:43.586Z,1027.91
2019-03-22T03:42:24.170Z,1027.93
2019-03-22T03:43:04.742Z,1027.94
2019-03-22T03:43:45.298Z,1027.96
2019-03-22T03:44:25.860Z,1027.92
2019-03-22T03:45:06.431Z,1027.93
2019-03-22T03:45:47.003Z,1027.9
2019-03-22T03:46:27.585Z,1027.9
2019-03-22T03:47:10.397Z,1027.9
2019-03-22T03:47:48.705Z,1027.85
2019-03-22T03:48:29.277Z,1027.91
2019-03-22T03:49:09.838Z,1027.86
2019-03-22T03:49:50.399Z,1027.92
2019-03-22T03:50:30.959Z,1027.91
2019-03-22T03:51:11.537Z,1027.92
2019-03-22T03:51:52.125Z,1027.99
2019-03-22T03:52:32.704Z,1027.99
2019-03-22T03:53:13.247Z,1027.96
2019-03-22T03:53:53.815Z,1027.96
2019-03-22T03:54:34.375Z,1027.98
2019-03-22T03:55:14.946Z,1027.98
2019-03-22T03:55:55.496Z,1028
2019-03-22T03:56:36.060Z,1027.98
2019-03-22T03:57:16.635Z,1027.96
2019-03-22T03:57:57.193Z,1028.01
2019-03-22T03:58:51.440Z,1027.99
2019-03-22T03:59:18.476Z,1027.98
2019-03-22T03:59:59.039Z,1027.95
2019-03-22T04:00:39.638Z,1028
2019-03-22T04:01:20.225Z,1028.02
2019-03-22T04:02:00.761Z,1028.04
2019-03-22T04:02:41.331Z,1028.03
2019-03-22T04:03:21.910Z,1028.06
2019-03-22T04:04:02.520Z,1028.07
2019-03-22T04:04:43.075Z,1028.07
2019-03-22T04:05:23.665Z,1028.07
2019-03-22T04:06:04.217Z,1028.06
2019-03-22T04:06:44.800Z,1028.01
2019-03-22T04:07:25.350Z,1028.02
2019-03-22T04:08:05.902Z,1027.96
2019-03-22T04:08:46.452Z,1028
2019-03-22T04:09:27.000Z,1027.95
2019-03-22T04:10:07.566Z,1027.93
2019-03-22T04:10:48.132Z,1027.95
2019-03-22T04:11:28.696Z,1027.93
2019-03-22T04:12:09.285Z,1027.97
2019-03-22T04:12:49.849Z,1028.02
2019-03-22T04:13:30.411Z,1028.01
2019-03-22T04:14:10.990Z,1028.05
2019-03-22T04:14:51.552Z,1028.05
2019-03-22T04:15:32.122Z,1028.12
2019-03-22T04:16:12.689Z,1028.12
2019-03-22T04:16:53.263Z,1028.11
2019-03-22T04:17:33.822Z,1028.11
2019-03-22T04:18:14.383Z,1028.11
2019-03-22T04:18:54.947Z,1028.1
2019-03-22T04:19:35.513Z,1028.06
2019-03-22T04:20:16.108Z,1028.06
2019-03-22T04:20:56.674Z,1028.06
2019-03-22T04:21:37.230Z,1028.04
2019-03-22T04:22:17.773Z,1028
2019-03-22T04:22:58.330Z,1028.03
2019-03-22T04:23:38.877Z,1028.03
2019-03-22T04:24:19.423Z,1028.01
2019-03-22T04:24:59.989Z,1028.02
2019-03-22T04:25:40.574Z,1028.05
2019-03-22T04:26:21.142Z,1028.12
2019-03-22T04:27:01.723Z,1028.1
2019-03-22T04:27:42.275Z,1028.11
2019-03-22T04:28:22.834Z,1028.16
2019-03-22T04:29:07.598Z,1028.15
2019-03-22T04:29:44.310Z,1028.19
2019-03-22T04:30:24.833Z,1028.13
2019-03-22T04:31:05.406Z,1028.15
2019-03-22T04:31:45.963Z,1028.17
2019-03-22T04:32:26.532Z,1028.12
2019-03-22T04:33:07.324Z,1028.13
2019-03-22T04:33:47.648Z,1028.13
2019-03-22T04:34:28.218Z,1028.1
2019-03-22T04:35:08.799Z,1028.11
2019-03-22T04:35:49.365Z,1028.09
2019-03-22T04:36:29.915Z,1028.08
2019-03-22T04:37:10.490Z,1028.12
2019-03-22T04:37:51.038Z,1028.07
2019-03-22T04:38:31.720Z,1028.11
2019-03-22T04:39:12.299Z,1028.01
2019-03-22T04:39:52.860Z,1028.04
2019-03-22T04:40:33.419Z,1027.95
2019-03-22T04:41:13.983Z,1027.94
2019-03-22T04:41:54.582Z,1027.92
2019-03-22T04:42:35.149Z,1027.94
2019-03-22T04:43:15.706Z,1027.92
2019-03-22T04:43:56.276Z,1027.96
2019-03-22T04:44:36.828Z,1027.95
2019-03-22T04:45:17.398Z,1027.96
2019-03-22T04:45:57.971Z,1028.01
2019-03-22T04:46:38.562Z,1028.01
2019-03-22T04:47:19.245Z,1028.05
2019-03-22T04:47:59.827Z,1028.02
2019-03-22T04:48:40.391Z,1028.01
2019-03-22T04:49:20.980Z,1028.03
2019-03-22T04:50:01.529Z,1028.05
2019-03-22T04:50:42.087Z,1028.05
2019-03-22T04:51:22.664Z,1028.05
2019-03-22T04:52:03.221Z,1028.09
2019-03-22T04:52:43.783Z,1028.12
2019-03-22T04:53:24.346Z,1028.1
2019-03-22T04:54:04.913Z,1028.11
2019-03-22T04:54:45.482Z,1028.04
2019-03-22T04:55:26.036Z,1028.08
2019-03-22T04:56:06.613Z,1028.1
2019-03-22T04:56:47.180Z,1028.14
2019-03-22T04:57:27.782Z,1028.13
2019-03-22T04:58:08.333Z,1028.14
2019-03-22T04:58:48.889Z,1028.1
2019-03-22T04:59:29.447Z,1028.13
2019-03-22T05:00:10.024Z,1028.15
2019-03-22T05:00:50.578Z,1028.12
2019-03-22T05:01:31.145Z,1028.14
2019-03-22T05:02:11.708Z,1028.12
2019-03-22T05:02:52.298Z,1028.14
2019-03-22T05:03:32.889Z,1028.12
2019-03-22T05:04:13.610Z,1028.09
2019-03-22T05:04:54.166Z,1028.11
2019-03-22T05:05:34.736Z,1028.1
2019-03-22T05:06:15.342Z,1028.12
2019-03-22T05:06:55.908Z,1028.14
2019-03-22T05:07:36.468Z,1028.14
2019-03-22T05:08:17.054Z,1028.21
2019-03-22T05:08:57.652Z,1028.2
2019-03-22T05:09:38.214Z,1028.24
2019-03-22T05:10:18.799Z,1028.28
2019-03-22T05:10:59.351Z,1028.26
2019-03-22T05:11:39.912Z,1028.27
2019-03-22T05:12:20.457Z,1028.27
2019-03-22T05:13:01.034Z,1028.3
2019-03-22T05:13:41.595Z,1028.27
2019-03-22T05:14:22.149Z,1028.26
2019-03-22T05:15:02.737Z,1028.27
2019-03-22T05:15:43.283Z,1028.32
2019-03-22T05:16:23.869Z,1028.33
2019-03-22T05:17:04.445Z,1028.34
2019-03-22T05:17:45.021Z,1028.34
2019-03-22T05:18:25.582Z,1028.37
2019-03-22T05:19:06.138Z,1028.34
2019-03-22T05:19:46.717Z,1028.38
2019-03-22T05:20:27.286Z,1028.35
2019-03-22T05:21:07.836Z,1028.35
2019-03-22T05:21:48.404Z,1028.37
2019-03-22T05:22:28.965Z,1028.34
2019-03-22T05:23:09.538Z,1028.39
2019-03-22T05:23:50.107Z,1028.37
2019-03-22T05:24:30.670Z,1028.44
2019-03-22T05:25:11.234Z,1028.46
2019-03-22T05:25:51.809Z,1028.49
2019-03-22T05:26:32.362Z,1028.49
2019-03-22T05:27:12.926Z,1028.49
2019-03-22T05:27:53.503Z,1028.54
2019-03-22T05:28:34.062Z,1028.52
2019-03-22T05:29:14.631Z,1028.52
2019-03-22T05:29:55.177Z,1028.54
2019-03-22T05:30:35.773Z,1028.49
2019-03-22T05:31:16.352Z,1028.5
2019-03-22T05:31:56.980Z,1028.46
2019-03-22T05:32:37.524Z,1028.5
2019-03-22T05:33:18.109Z,1028.49
2019-03-22T05:33:58.666Z,1028.45
2019-03-22T05:34:39.234Z,1028.44
2019-03-22T05:35:19.785Z,1028.42
2019-03-22T05:36:00.347Z,1028.44
2019-03-22T05:36:40.920Z,1028.4
2019-03-22T05:37:21.516Z,1028.43
2019-03-22T05:38:02.087Z,1028.42
2019-03-22T05:38:42.644Z,1028.47
2019-03-22T05:39:23.239Z,1028.38
2019-03-22T05:40:03.798Z,1028.4
2019-03-22T05:40:44.361Z,1028.4
2019-03-22T05:41:24.944Z,1028.39
2019-03-22T05:42:05.495Z,1028.42
2019-03-22T05:42:46.076Z,1028.4
2019-03-22T05:43:26.626Z,1028.43
2019-03-22T05:44:07.176Z,1028.44
2019-03-22T05:44:47.757Z,1028.49
2019-03-22T05:45:28.306Z,1028.51
2019-03-22T05:46:08.870Z,1028.48
2019-03-22T05:46:49.420Z,1028.52
2019-03-22T05:47:29.990Z,1028.53
2019-03-22T05:48:11.607Z,1028.52
2019-03-22T05:48:52.173Z,1028.51
2019-03-22T05:49:32.750Z,1028.49
2019-03-22T05:50:13.330Z,1028.48
2019-03-22T05:50:53.886Z,1028.5
2019-03-22T05:51:34.448Z,1028.5
2019-03-22T05:52:15.007Z,1028.5
2019-03-22T05:52:55.560Z,1028.45
2019-03-22T05:53:36.166Z,1028.46
2019-03-22T05:54:16.682Z,1028.5
2019-03-22T05:54:57.281Z,1028.46
2019-03-22T05:55:37.839Z,1028.49
2019-03-22T05:56:18.402Z,1028.52
2019-03-22T05:56:58.960Z,1028.47
2019-03-22T05:57:39.519Z,1028.47
2019-03-22T05:58:20.125Z,1028.45
2019-03-22T05:59:00.641Z,1028.44
2019-03-22T05:59:42.628Z,1028.47
2019-03-22T06:00:21.800Z,1028.44
2019-03-22T06:01:02.380Z,1028.44
2019-03-22T06:01:45.273Z,1028.44
2019-03-22T06:02:23.974Z,1028.41
2019-03-22T06:03:04.564Z,1028.41
2019-03-22T06:03:45.126Z,1028.45
2019-03-22T06:04:25.685Z,1028.47
2019-03-22T06:05:06.278Z,1028.52
2019-03-22T06:05:46.909Z,1028.55
2019-03-22T06:06:27.473Z,1028.57
2019-03-22T06:07:08.043Z,1028.59
2019-03-22T06:07:48.602Z,1028.67
2019-03-22T06:08:29.170Z,1028.6
2019-03-22T06:09:09.737Z,1028.69
2019-03-22T06:09:50.291Z,1028.63
2019-03-22T06:10:30.856Z,1028.65
2019-03-22T06:11:11.499Z,1028.65
2019-03-22T06:11:52.032Z,1028.62
2019-03-22T06:12:32.692Z,1028.63
2019-03-22T06:13:13.300Z,1028.64
2019-03-22T06:13:53.851Z,1028.63
2019-03-22T06:14:34.417Z,1028.6
2019-03-22T06:15:15.192Z,1028.65
2019-03-22T06:15:55.922Z,1028.65
2019-03-22T06:16:36.790Z,1028.61
2019-03-22T06:17:17.340Z,1028.62
2019-03-22T06:17:57.904Z,1028.63
2019-03-22T06:18:38.474Z,1028.59
2019-03-22T06:19:19.031Z,1028.62
2019-03-22T06:19:59.591Z,1028.66
2019-03-22T06:20:40.166Z,1028.66
2019-03-22T06:21:20.719Z,1028.66
2019-03-22T06:22:01.284Z,1028.65
2019-03-22T06:22:41.834Z,1028.68
2019-03-22T06:23:22.439Z,1028.68
2019-03-22T06:24:02.994Z,1028.64
2019-03-22T06:24:43.743Z,1028.7
2019-03-22T06:25:24.310Z,1028.72
2019-03-22T06:26:04.873Z,1028.7
2019-03-22T06:26:45.429Z,1028.68
2019-03-22T06:27:26.047Z,1028.7
2019-03-22T06:28:06.627Z,1028.71
2019-03-22T06:28:47.193Z,1028.68
2019-03-22T06:29:27.806Z,1028.7
2019-03-22T06:30:08.362Z,1028.67
2019-03-22T06:30:48.938Z,1028.72
2019-03-22T06:31:29.505Z,1028.75
2019-03-22T06:32:10.075Z,1028.69
2019-03-22T06:32:50.631Z,1028.67
2019-03-22T06:33:31.206Z,1028.7
2019-03-22T06:34:11.778Z,1028.74
2019-03-22T06:34:52.344Z,1028.76
2019-03-22T06:35:32.997Z,1028.73
2019-03-22T06:36:13.492Z,1028.72
2019-03-22T06:36:54.049Z,1028.73
2019-03-22T06:37:34.609Z,1028.72
2019-03-22T06:38:15.176Z,1028.74
2019-03-22T06:38:55.747Z,1028.72
2019-03-22T06:39:36.312Z,1028.75
2019-03-22T06:40:16.858Z,1028.72
2019-03-22T06:40:57.412Z,1028.71
2019-03-22T06:41:37.965Z,1028.69
2019-03-22T06:42:18.556Z,1028.73
2019-03-22T06:42:59.119Z,1028.73
2019-03-22T06:43:39.704Z,1028.69
2019-03-22T06:44:20.273Z,1028.7
2019-03-22T06:45:00.849Z,1028.68
2019-03-22T06:45:41.404Z,1028.72
2019-03-22T06:46:22.019Z,1028.74
2019-03-22T06:47:02.594Z,1028.73
2019-03-22T06:47:43.161Z,1028.76
2019-03-22T06:48:23.712Z,1028.79
2019-03-22T06:49:04.294Z,1028.78
2019-03-22T06:49:44.844Z,1028.81
2019-03-22T06:50:25.530Z,1028.81
2019-03-22T06:51:06.144Z,1028.83
2019-03-22T06:51:46.709Z,1028.88
2019-03-22T06:52:27.274Z,1028.87
2019-03-22T06:53:07.860Z,1028.92
2019-03-22T06:53:48.419Z,1028.9
2019-03-22T06:54:31.684Z,1028.97
2019-03-22T06:55:09.598Z,1029
2019-03-22T06:55:50.163Z,1029.02
2019-03-22T06:56:30.746Z,1029.01
2019-03-22T06:57:11.291Z,1029.04
2019-03-22T06:57:51.874Z,1029.04
2019-03-22T06:58:32.459Z,1029.04
2019-03-22T06:59:13.093Z,1029.04
2019-03-22T07:00:05.469Z,1029.03
2019-03-22T07:00:34.222Z,1029
2019-03-22T07:01:14.775Z,1029
2019-03-22T07:01:55.346Z,1028.98
2019-03-22T07:02:35.907Z,1028.93
2019-03-22T07:03:16.471Z,1028.93
2019-03-22T07:03:57.044Z,1028.92
2019-03-22T07:04:37.688Z,1028.95
2019-03-22T07:05:18.263Z,1028.98
2019-03-22T07:05:58.834Z,1028.99
2019-03-22T07:06:39.390Z,1029.02
2019-03-22T07:07:19.941Z,1029.02
2019-03-22T07:08:00.670Z,1029.04
2019-03-22T07:08:41.222Z,1029.05
2019-03-22T07:09:21.781Z,1029.07
2019-03-22T07:10:02.362Z,1029.06
2019-03-22T07:10:42.948Z,1029.06
2019-03-22T07:11:23.510Z,1029.05
2019-03-22T07:12:04.143Z,1029.02
2019-03-22T07:12:44.655Z,1029.02
2019-03-22T07:13:25.231Z,1029.03
2019-03-22T07:14:05.789Z,1029.04
2019-03-22T07:14:46.405Z,1029.03
2019-03-22T07:15:27.012Z,1029.01
2019-03-22T07:16:07.586Z,1028.98
2019-03-22T07:16:48.139Z,1028.98
2019-03-22T07:17:28.700Z,1028.99
2019-03-22T07:18:09.298Z,1028.95
2019-03-22T07:18:49.860Z,1028.96
2019-03-22T07:19:30.425Z,1028.96
2019-03-22T07:20:10.992Z,1028.95
2019-03-22T07:20:51.667Z,1028.98
2019-03-22T07:21:32.248Z,1028.97
2019-03-22T07:22:12.829Z,1029.01
2019-03-22T07:22:53.381Z,1028.97
2019-03-22T07:23:34.032Z,1029.02
2019-03-22T07:24:14.618Z,1029
2019-03-22T07:24:55.189Z,1029.1
2019-03-22T07:25:35.765Z,1029.1
2019-03-22T07:26:16.326Z,1029.11
2019-03-22T07:26:57.508Z,1029.13
2019-03-22T07:27:38.050Z,1029.12
2019-03-22T07:28:18.627Z,1029.13
2019-03-22T07:28:59.200Z,1029.07
2019-03-22T07:29:39.783Z,1029.09
2019-03-22T07:30:20.343Z,1029.04
2019-03-22T07:31:00.918Z,1029.05
2019-03-22T07:31:41.489Z,1029.04
2019-03-22T07:32:22.050Z,1029.03
2019-03-22T07:33:02.612Z,1029
2019-03-22T07:33:43.247Z,1029.01
2019-03-22T07:34:23.802Z,1028.98
2019-03-22T07:35:04.385Z,1028.99
2019-03-22T07:35:45.075Z,1029.04
2019-03-22T07:36:25.632Z,1028.99
2019-03-22T07:37:06.207Z,1028.99
2019-03-22T07:37:46.763Z,1028.96
2019-03-22T07:38:27.320Z,1028.99
2019-03-22T07:39:07.894Z,1028.96
2019-03-22T07:39:48.470Z,1028.95
2019-03-22T07:40:29.020Z,1028.97
2019-03-22T07:41:09.688Z,1028.96
2019-03-22T07:41:50.285Z,1028.96
2019-03-22T07:42:30.850Z,1028.97
2019-03-22T07:43:11.402Z,1029
2019-03-22T07:43:51.970Z,1028.95
2019-03-22T07:44:32.523Z,1028.98
2019-03-22T07:45:13.097Z,1028.99
2019-03-22T07:45:53.744Z,1028.99
2019-03-22T07:46:34.518Z,1029
2019-03-22T07:47:15.128Z,1029.02
2019-03-22T07:47:55.948Z,1029.01
2019-03-22T07:48:36.263Z,1029.02
2019-03-22T07:49:16.869Z,1029.04
2019-03-22T07:49:57.412Z,1029.08
2019-03-22T07:50:37.988Z,1029.06
2019-03-22T07:51:18.550Z,1029.06
2019-03-22T07:51:59.110Z,1029.05
2019-03-22T07:52:39.664Z,1029.01
2019-03-22T07:53:20.217Z,1029.01
2019-03-22T07:54:03.377Z,1029.02
2019-03-22T07:54:41.383Z,1028.97
2019-03-22T07:55:22.085Z,1028.96
2019-03-22T07:56:02.648Z,1028.96
2019-03-22T07:56:43.221Z,1028.96
2019-03-22T07:57:23.814Z,1029
2019-03-22T07:58:04.371Z,1028.99
2019-03-22T07:58:45.016Z,1028.98
2019-03-22T07:59:25.746Z,1028.95
2019-03-22T08:00:06.333Z,1028.96
2019-03-22T08:00:46.941Z,1028.96
2019-03-22T08:01:27.541Z,1028.94
2019-03-22T08:02:08.085Z,1028.94
2019-03-22T08:02:48.671Z,1028.91
2019-03-22T08:03:29.287Z,1028.93
2019-03-22T08:04:09.875Z,1028.93
2019-03-22T08:04:50.433Z,1028.95
2019-03-22T08:05:31.011Z,1028.91
2019-03-22T08:06:11.565Z,1028.94
2019-03-22T08:06:52.140Z,1028.93
2019-03-22T08:07:32.693Z,1028.95
2019-03-22T08:08:13.264Z,1028.97
2019-03-22T08:08:54.011Z,1028.96
2019-03-22T08:09:34.664Z,1028.98
2019-03-22T08:10:15.896Z,1028.97
2019-03-22T08:10:56.503Z,1028.98
2019-03-22T08:11:37.057Z,1029
2019-03-22T08:12:19.464Z,1028.93
2019-03-22T08:12:58.221Z,1028.94
2019-03-22T08:13:38.834Z,1028.99